Time;durP1;ratioP1;P1;durP2;ratioP2;P2;SDS_P1;SDS_P2;PMS_P1;PMS_P2;Temp;Humidity;BMP_temperature;BMP_pressure;BME280_temperature;BME280_humidity;BME280_pressure;Samples;Min_cycle;Max_cycle;Signal;HPM_P1;HPM_P2
2021/08/23 00:00:17;;;;;;;0.20;0.20;;;;;;;14.12;77.37;99845.06;5022994;28;20053;-74
2021/08/23 00:02:43;;;;;;;0.15;0.15;;;;;;;14.19;77.03;99856.09;5026299;28;20316;-74
2021/08/23 00:05:09;;;;;;;0.20;0.20;;;;;;;14.26;76.38;99839.94;5046240;28;20396;-74
2021/08/23 00:07:35;;;;;;;0.20;0.20;;;;;;;14.22;77.33;99844.88;5045315;28;20039;-76
2021/08/23 00:10:01;;;;;;;0.20;0.20;;;;;;;14.19;77.13;99850.66;5029199;28;20390;-74
2021/08/23 00:12:27;;;;;;;0.20;0.20;;;;;;;14.13;77.24;99854.91;5028652;28;20056;-75
2021/08/23 00:14:53;;;;;;;0.20;0.20;;;;;;;14.11;77.53;99848.78;5021865;28;20183;-74
2021/08/23 00:17:19;;;;;;;0.20;0.20;;;;;;;14.07;77.76;99852.84;5012327;28;20052;-74
2021/08/23 00:19:45;;;;;;;0.20;0.20;;;;;;;14.07;77.77;99850.13;5011268;28;20045;-73
2021/08/23 00:22:21;;;;;;;0.10;0.10;;;;;;;13.98;78.43;99849.28;5016111;28;20076;-74
2021/08/23 00:24:48;;;;;;;0.10;0.10;;;;;;;13.98;78.40;99849.28;5033569;28;20068;-75
2021/08/23 00:27:14;;;;;;;0.20;0.20;;;;;;;14.02;78.34;99849.81;5013742;28;20029;-75
2021/08/23 00:29:40;;;;;;;0.20;0.20;;;;;;;13.99;78.57;99850.97;5000572;28;20095;-74
2021/08/23 00:32:06;;;;;;;0.10;0.10;;;;;;;14.06;78.27;99853.88;5048443;28;20122;-74
2021/08/23 00:34:32;;;;;;;0.20;0.20;;;;;;;14.09;78.28;99853.53;5031113;28;20409;-74
2021/08/23 00:37:01;;;;;;;0.20;0.20;;;;;;;14.07;78.44;99852.00;5023085;28;20064;-74
2021/08/23 00:39:27;;;;;;;0.20;0.20;;;;;;;14.06;78.44;99855.75;5042125;28;20040;-74
2021/08/23 00:41:53;;;;;;;0.20;0.20;;;;;;;14.01;78.72;99858.97;5012920;28;20041;-76
2021/08/23 00:44:18;;;;;;;0.20;0.20;;;;;;;14.00;78.91;99862.69;5032903;28;20103;-74
2021/08/23 00:46:44;;;;;;;0.20;0.20;;;;;;;13.96;78.55;99862.19;5029997;28;20131;-73
2021/08/23 00:49:10;;;;;;;0.20;0.20;;;;;;;13.98;77.95;99871.03;5049433;28;20119;-76
2021/08/23 00:51:36;;;;;;;0.10;0.10;;;;;;;13.96;77.78;99861.34;5015974;28;20528;-75
2021/08/23 00:54:01;;;;;;;0.20;0.20;;;;;;;14.07;77.58;99874.59;4994693;28;20045;-75
2021/08/23 00:56:27;;;;;;;0.10;0.10;;;;;;;14.15;77.17;99880.06;4998507;28;20075;-75
2021/08/23 00:58:53;;;;;;;0.20;0.20;;;;;;;14.23;76.54;99882.78;5030858;28;20072;-75
2021/08/23 01:01:33;;;;;;;0.20;0.20;;;;;;;14.30;75.99;99873.97;5030349;28;20045;-75
2021/08/23 01:04:03;;;;;;;0.20;0.20;;;;;;;14.36;75.89;99878.69;5028964;28;20068;-74
2021/08/23 01:06:31;;;;;;;0.20;0.20;;;;;;;14.33;75.64;99873.59;5032305;28;20049;-74
2021/08/23 01:09:07;;;;;;;0.10;0.10;;;;;;;14.34;75.98;99880.75;5047002;28;20095;-74
2021/08/23 01:11:48;;;;;;;0.20;0.20;;;;;;;14.28;75.53;99886.88;5046699;28;20122;-74
2021/08/23 01:14:13;;;;;;;0.10;0.10;;;;;;;14.23;76.07;99885.50;5010885;28;20546;-75
2021/08/23 01:16:39;;;;;;;0.20;0.20;;;;;;;14.26;76.18;99878.00;5012535;28;20043;-73
2021/08/23 01:19:05;;;;;;;0.20;0.20;;;;;;;14.18;76.79;99873.41;5043430;28;20418;-74
2021/08/23 01:21:31;;;;;;;0.20;0.20;;;;;;;14.18;76.26;99887.00;5049977;28;20410;-76
2021/08/23 01:23:59;;;;;;;0.20;0.20;;;;;;;14.10;76.88;99882.41;5030005;28;20040;-74
2021/08/23 01:26:43;;;;;;;0.20;0.20;;;;;;;14.02;76.94;99885.13;5000495;28;20136;-73
2021/08/23 01:29:29;;;;;;;0.20;0.20;;;;;;;14.10;77.05;99900.59;5041628;28;20541;-75
2021/08/23 01:32:17;;;;;;;0.20;0.20;;;;;;;14.11;76.60;99900.44;5047566;28;20055;-76
2021/08/23 01:34:45;;;;;;;0.20;0.20;;;;;;;14.11;76.70;99894.16;5027223;28;20474;-74
2021/08/23 01:37:13;;;;;;;0.20;0.20;;;;;;;14.12;77.13;99896.72;5032386;28;20048;-75
2021/08/23 01:39:40;;;;;;;0.20;0.20;;;;;;;14.07;77.43;99896.34;5028061;28;20427;-74
2021/08/23 01:42:06;;;;;;;0.20;0.20;;;;;;;14.01;77.50;99902.47;5028155;28;20563;-75
2021/08/23 01:44:31;;;;;;;0.10;0.10;;;;;;;13.98;78.03;99914.53;5030890;28;20055;-73
2021/08/23 01:46:57;;;;;;;0.20;0.20;;;;;;;13.91;78.65;99918.06;5012816;28;20128;-75
2021/08/23 01:49:23;;;;;;;0.20;0.20;;;;;;;13.86;78.45;99918.59;5028973;28;20061;-75
2021/08/23 01:51:49;;;;;;;0.20;0.20;;;;;;;13.79;78.75;99913.97;5046447;28;20041;-74
2021/08/23 01:54:15;;;;;;;0.10;0.10;;;;;;;13.78;79.04;99913.09;5049383;28;20498;-74
2021/08/23 01:56:41;;;;;;;0.20;0.20;;;;;;;13.75;79.05;99914.31;5044977;28;20075;-73
2021/08/23 01:59:07;;;;;;;0.20;0.20;;;;;;;13.82;79.20;99916.34;5028226;28;20033;-75
2021/08/23 02:01:34;;;;;;;0.20;0.20;;;;;;;13.80;79.00;99916.53;5014836;28;20040;-75
2021/08/23 02:04:00;;;;;;;0.20;0.20;;;;;;;13.75;79.14;99911.59;5048080;28;20049;-75
2021/08/23 02:06:26;;;;;;;0.20;0.20;;;;;;;13.80;78.95;99915.66;5024380;28;20052;-77
2021/08/23 02:08:52;;;;;;;0.20;0.20;;;;;;;13.77;78.85;99914.13;5048061;28;20048;-75
2021/08/23 02:11:19;;;;;;;0.20;0.20;;;;;;;13.73;79.08;99916.31;5035647;28;20445;-75
2021/08/23 02:13:45;;;;;;;0.20;0.20;;;;;;;13.71;79.23;99917.50;5010311;28;20091;-76
2021/08/23 02:16:11;;;;;;;0.20;0.20;;;;;;;13.61;80.12;99916.81;5037355;28;20045;-77
2021/08/23 02:18:37;;;;;;;0.20;0.20;;;;;;;13.60;80.25;99918.69;5014930;28;20057;-73
2021/08/23 02:21:03;;;;;;;0.20;0.20;;;;;;;13.55;80.03;99923.72;5015082;28;20107;-76
2021/08/23 02:23:28;;;;;;;0.20;0.20;;;;;;;13.47;79.75;99920.97;5047634;28;20116;-74
2021/08/23 02:25:55;;;;;;;0.20;0.20;;;;;;;13.35;80.34;99916.88;5045338;28;20044;-74
2021/08/23 02:28:22;;;;;;;0.20;0.20;;;;;;;13.26;80.72;99924.09;5030827;28;20037;-73
2021/08/23 02:30:48;;;;;;;0.20;0.20;;;;;;;13.20;81.05;99925.59;5028490;28;20508;-74
2021/08/23 02:33:14;;;;;;;0.20;0.20;;;;;;;13.17;81.12;99919.63;5029395;28;20048;-75
2021/08/23 02:35:40;;;;;;;0.20;0.20;;;;;;;13.15;80.77;99922.47;5014492;28;20495;-74
2021/08/23 02:38:08;;;;;;;0.20;0.20;;;;;;;13.10;81.07;99927.56;5029375;28;20108;-73
2021/08/23 02:40:35;;;;;;;0.20;0.20;;;;;;;13.02;80.94;99930.22;5024369;28;20045;-76
2021/08/23 02:43:01;;;;;;;0.20;0.20;;;;;;;12.99;81.33;99925.13;5045826;28;20045;-75
2021/08/23 02:45:27;;;;;;;0.20;0.20;;;;;;;12.96;81.19;99928.16;5013936;28;20383;-76
2021/08/23 02:47:53;;;;;;;0.20;0.20;;;;;;;12.91;81.66;99930.50;5029478;28;20080;-74
2021/08/23 02:50:19;;;;;;;0.20;0.20;;;;;;;12.87;81.39;99934.50;5013987;28;20052;-74
2021/08/23 02:52:45;;;;;;;0.20;0.20;;;;;;;12.83;81.81;99927.72;5013311;28;20083;-76
2021/08/23 02:55:11;;;;;;;0.20;0.20;;;;;;;12.81;81.75;99927.03;5010583;28;20487;-75
2021/08/23 02:57:36;;;;;;;0.20;0.20;;;;;;;12.90;80.83;99936.91;5030673;28;20039;-77
2021/08/23 03:00:05;;;;;;;0.20;0.20;;;;;;;13.03;80.60;99940.91;5011190;28;20044;-74
2021/08/23 03:02:30;;;;;;;0.20;0.20;;;;;;;13.18;79.85;99937.59;5020786;28;20072;-75
2021/08/23 03:04:56;;;;;;;0.20;0.20;;;;;;;13.34;78.55;99936.88;5017606;28;20084;-77
2021/08/23 03:07:29;;;;;;;0.20;0.20;;;;;;;13.52;77.71;99943.06;5031946;28;20231;-75
2021/08/23 03:09:55;;;;;;;0.20;0.20;;;;;;;13.64;77.42;99949.09;5047960;28;20108;-77
2021/08/23 03:12:22;;;;;;;0.20;0.20;;;;;;;13.65;77.28;99943.47;5031583;28;20043;-74
2021/08/23 03:14:48;;;;;;;0.30;0.30;;;;;;;13.73;76.62;99954.38;5032687;28;20040;-74
2021/08/23 03:17:14;;;;;;;0.30;0.30;;;;;;;13.88;76.26;99953.72;5051036;28;20052;-73
2021/08/23 03:19:40;;;;;;;0.20;0.20;;;;;;;14.03;75.80;99943.91;5030410;28;20577;-75
2021/08/23 03:22:05;;;;;;;0.30;0.30;;;;;;;14.17;75.47;99940.56;5050855;28;20067;-75
2021/08/23 03:24:31;;;;;;;0.30;0.30;;;;;;;14.18;74.61;99941.41;5013729;28;20049;-76
2021/08/23 03:26:57;;;;;;;0.20;0.20;;;;;;;14.39;74.27;99946.38;5016516;28;20067;-75
2021/08/23 03:29:23;;;;;;;0.20;0.20;;;;;;;14.45;73.23;99949.25;5028069;28;20045;-76
2021/08/23 03:31:49;;;;;;;0.20;0.20;;;;;;;14.58;72.69;99953.38;5043385;28;20064;-74
2021/08/23 03:34:15;;;;;;;0.22;0.22;;;;;;;14.63;71.97;99949.13;5027382;28;20068;-74
2021/08/23 03:36:42;;;;;;;0.20;0.20;;;;;;;14.83;72.02;99951.50;5031882;28;20070;-75
2021/08/23 03:39:08;;;;;;;0.22;0.22;;;;;;;14.91;71.14;99954.22;5031100;28;20170;-75
2021/08/23 03:41:37;;;;;;;0.30;0.30;;;;;;;14.96;71.14;99946.41;5029595;28;20057;-76
2021/08/23 03:44:03;;;;;;;0.20;0.20;;;;;;;15.14;70.89;99944.31;5025695;28;20434;-75
2021/08/23 03:46:32;;;;;;;0.30;0.30;;;;;;;15.39;70.06;99946.97;5009863;28;20056;-74
2021/08/23 03:49:03;;;;;;;0.30;0.30;;;;;;;15.59;68.75;99950.97;5020302;28;20036;-74
2021/08/23 03:51:28;;;;;;;0.30;0.30;;;;;;;15.70;68.17;99954.38;5026041;28;20049;-74
2021/08/23 03:53:55;;;;;;;0.30;0.30;;;;;;;15.90;67.76;99950.19;5043694;28;20047;-76
2021/08/23 03:56:21;;;;;;;0.30;0.30;;;;;;;16.04;66.80;99957.59;4998401;28;20041;-75
2021/08/23 03:58:46;;;;;;;0.30;0.30;;;;;;;16.27;65.71;99956.78;5041946;28;20119;-75
2021/08/23 04:01:12;;;;;;;0.30;0.30;;;;;;;16.28;65.73;99950.31;5026905;28;20037;-74
2021/08/23 04:03:38;;;;;;;0.30;0.30;;;;;;;16.58;65.17;99949.41;5026882;28;20052;-75
2021/08/23 04:06:04;;;;;;;0.30;0.30;;;;;;;16.68;64.58;99959.25;5045108;28;20135;-79
2021/08/23 04:08:31;;;;;;;0.30;0.30;;;;;;;16.85;64.55;99960.81;4983092;28;20049;-77
2021/08/23 04:10:57;;;;;;;0.20;0.20;;;;;;;17.01;63.50;99954.38;5013039;28;20391;-76
2021/08/23 04:13:23;;;;;;;0.20;0.20;;;;;;;16.70;64.48;99959.88;5013878;28;20033;-74
2021/08/23 04:15:49;;;;;;;0.20;0.20;;;;;;;16.35;65.33;99976.69;5013582;28;20045;-78
2021/08/23 04:18:15;;;;;;;0.20;0.20;;;;;;;16.08;66.25;99961.66;5024781;28;20140;-75
2021/08/23 04:20:41;;;;;;;0.20;0.20;;;;;;;15.97;66.54;99962.06;5009687;28;20424;-75
2021/08/23 04:23:07;;;;;;;0.20;0.20;;;;;;;15.92;67.15;99961.78;5027260;28;20052;-76
2021/08/23 04:25:33;;;;;;;0.20;0.20;;;;;;;15.79;66.94;99959.59;5028383;28;20347;-77
2021/08/23 04:27:59;;;;;;;0.20;0.20;;;;;;;15.52;68.17;99966.34;5005615;28;20038;-76
2021/08/23 04:30:24;;;;;;;0.20;0.20;;;;;;;15.22;68.89;99967.13;5007007;28;20175;-77
2021/08/23 04:32:52;;;;;;;0.20;0.20;;;;;;;15.10;69.25;99964.75;5012348;28;20075;-77
2021/08/23 04:35:18;;;;;;;0.20;0.20;;;;;;;15.01;69.20;99954.03;5026629;28;20041;-77
2021/08/23 04:37:44;;;;;;;0.20;0.20;;;;;;;14.97;69.06;99960.84;5045023;28;20129;-76
2021/08/23 04:40:10;;;;;;;0.20;0.20;;;;;;;15.07;69.10;99964.25;5041341;28;20537;-77
2021/08/23 04:42:36;;;;;;;0.20;0.20;;;;;;;15.09;68.49;99954.88;5025390;28;20045;-76
2021/08/23 04:45:02;;;;;;;0.20;0.20;;;;;;;15.05;68.04;99953.50;5043534;28;20041;-77
2021/08/23 04:47:28;;;;;;;0.20;0.20;;;;;;;15.10;67.48;99964.75;5044049;28;20076;-76
2021/08/23 04:49:54;;;;;;;0.20;0.20;;;;;;;15.18;67.16;99962.00;5043061;28;20529;-77
2021/08/23 04:52:19;;;;;;;0.20;0.20;;;;;;;15.26;68.16;99966.59;5046838;28;20044;-77
2021/08/23 04:54:45;;;;;;;0.20;0.20;;;;;;;15.28;67.61;99963.66;5046449;28;20044;-78
2021/08/23 04:57:11;;;;;;;0.20;0.20;;;;;;;15.45;67.64;99959.88;5030186;28;20123;-77
2021/08/23 04:59:37;;;;;;;0.20;0.20;;;;;;;15.51;66.61;99967.38;5046792;28;20044;-77
2021/08/23 05:02:03;;;;;;;0.20;0.20;;;;;;;15.57;68.12;99963.06;5043521;28;20413;-75
2021/08/23 05:04:29;;;;;;;0.20;0.20;;;;;;;15.64;69.35;99974.97;5029813;28;20033;-76
2021/08/23 05:06:54;;;;;;;0.10;0.10;;;;;;;15.74;68.94;99972.09;5045098;28;20029;-76
2021/08/23 05:09:20;;;;;;;0.20;0.20;;;;;;;15.75;68.91;99973.78;5000186;28;20029;-78
2021/08/23 05:11:46;;;;;;;0.20;0.20;;;;;;;15.80;69.24;99982.28;5048258;28;20296;-76
2021/08/23 05:14:12;;;;;;;0.20;0.20;;;;;;;15.78;69.54;99978.88;5027940;28;20057;-80
2021/08/23 05:16:38;;;;;;;0.20;0.20;;;;;;;15.87;68.68;99972.38;5044210;28;20049;-76
2021/08/23 05:19:03;;;;;;;0.20;0.20;;;;;;;16.00;68.74;99983.53;5009160;28;20044;-75
2021/08/23 05:21:29;;;;;;;0.20;0.20;;;;;;;16.02;68.44;99978.78;5028280;28;20093;-77
2021/08/23 05:23:55;;;;;;;0.20;0.20;;;;;;;16.16;67.94;99982.59;5013963;28;20041;-81
2021/08/23 05:26:21;;;;;;;0.30;0.30;;;;;;;16.30;67.66;99983.72;5006270;28;20525;-79
2021/08/23 05:28:47;;;;;;;0.40;0.40;;;;;;;16.87;65.09;99973.25;5047275;28;20073;-79
2021/08/23 05:31:12;;;;;;;0.70;0.70;;;;;;;18.15;61.27;99977.66;5011956;28;20041;-78
2021/08/23 05:33:38;;;;;;;0.70;0.70;;;;;;;18.93;55.16;99970.47;5048147;28;20041;-78
2021/08/23 05:36:04;;;;;;;0.60;0.60;;;;;;;19.37;53.73;99985.78;5047755;28;20041;-80
2021/08/23 05:38:30;;;;;;;0.70;0.70;;;;;;;20.02;52.47;99988.28;5047223;28;20033;-77
2021/08/23 05:40:56;;;;;;;0.63;0.63;;;;;;;20.26;49.75;99990.50;5028577;28;20037;-78
2021/08/23 05:43:22;;;;;;;0.60;0.60;;;;;;;20.87;47.78;99984.09;5046634;28;20115;-78
2021/08/23 05:45:48;;;;;;;0.60;0.60;;;;;;;21.30;47.40;99984.53;5048411;28;20083;-81
2021/08/23 05:48:16;;;;;;;0.70;0.70;;;;;;;21.53;45.88;99986.00;5022737;28;20059;-79
2021/08/23 05:50:42;;;;;;;0.73;0.73;;;;;;;21.88;45.41;99990.16;5047774;28;20037;-78
2021/08/23 05:53:08;;;;;;;0.60;0.60;;;;;;;21.91;44.60;99967.72;5047569;28;20064;-78
2021/08/23 05:55:33;;;;;;;0.60;0.60;;;;;;;22.62;43.30;99987.94;5047187;28;20069;-75
2021/08/23 05:57:59;;;;;;;0.63;0.63;;;;;;;22.55;42.59;99976.09;5049555;28;20045;-79
2021/08/23 06:00:25;;;;;;;0.60;0.60;;;;;;;23.07;41.65;99977.69;5048491;28;20091;-80
2021/08/23 06:02:51;;;;;;;0.70;0.70;;;;;;;22.68;41.81;99984.28;5046657;28;20045;-80
2021/08/23 06:05:17;;;;;;;0.80;0.80;;;;;;;23.27;40.32;99976.66;5047388;28;20041;-79
2021/08/23 06:07:42;;;;;;;0.80;0.80;;;;;;;23.12;39.87;99987.19;5045757;28;20069;-78
2021/08/23 06:10:12;;;;;;;0.80;0.80;;;;;;;22.88;36.92;99982.22;5045952;28;20052;-78
2021/08/23 06:12:39;;;;;;;0.70;0.70;;;;;;;23.14;37.23;99987.78;5046204;28;20407;-77
2021/08/23 06:15:05;;;;;;;0.70;0.70;;;;;;;23.39;37.52;99985.88;4989139;28;20072;-79
2021/08/23 06:17:31;;;;;;;0.80;0.80;;;;;;;23.43;38.08;99986.25;5048579;28;20044;-79
2021/08/23 06:19:57;;;;;;;0.80;0.80;;;;;;;23.38;37.85;99986.09;5050530;28;20049;-80
2021/08/23 06:22:22;;;;;;;0.80;0.80;;;;;;;23.80;37.93;99989.94;5042633;28;20107;-77
2021/08/23 06:24:52;;;;;;;0.80;0.80;;;;;;;24.55;37.42;99986.91;5026762;28;20049;-77
2021/08/23 06:27:18;;;;;;;0.80;0.80;;;;;;;25.80;35.28;99980.38;5046753;28;20048;-79
2021/08/23 06:29:44;;;;;;;0.80;0.80;;;;;;;26.49;34.30;99990.69;5044428;28;20471;-77
2021/08/23 06:32:10;;;;;;;0.80;0.80;;;;;;;25.43;35.85;99985.28;5042769;28;20048;-78
2021/08/23 06:34:35;;;;;;;0.82;0.82;;;;;;;24.71;37.11;100005.56;5044972;28;20040;-79
2021/08/23 06:37:01;;;;;;;0.95;0.95;;;;;;;24.63;37.26;100003.16;5045890;28;20092;-77
2021/08/23 06:39:27;;;;;;;1.00;1.00;;;;;;;24.65;37.77;99991.88;5043320;28;20053;-79
2021/08/23 06:41:53;;;;;;;0.90;0.90;;;;;;;25.36;36.36;99990.09;5031092;28;20057;-78
2021/08/23 06:44:20;;;;;;;0.98;0.98;;;;;;;25.37;36.26;99983.47;5012577;28;20064;-74
2021/08/23 06:46:46;;;;;;;0.90;0.90;;;;;;;26.69;34.80;99994.72;5042240;28;20072;-77
2021/08/23 06:49:12;;;;;;;0.80;0.80;;;;;;;26.18;35.18;99993.66;5008364;28;20042;-80
2021/08/23 06:51:37;;;;;;;0.90;0.90;;;;;;;27.44;33.72;99997.38;5031710;28;20136;-77
2021/08/23 06:54:03;;;;;;;0.90;0.90;;;;;;;28.28;31.64;99989.69;5045439;28;20041;-76
2021/08/23 06:56:29;;;;;;;1.10;1.10;;;;;;;28.63;31.04;100002.38;5048460;28;20068;-81
2021/08/23 06:58:56;;;;;;;1.10;1.10;;;;;;;28.60;30.38;99998.16;5047412;28;20102;-78
2021/08/23 07:01:26;;;;;;;0.20;0.20;;;;;;;28.71;29.29;100003.84;5046940;28;20041;-78
2021/08/23 07:17:57;;;;;;;0.90;0.90;;;;;;;30.96;25.82;100001.38;5100989;27;20411;-86
2021/08/23 07:20:26;;;;;;;0.95;0.95;;;;;;;30.57;25.30;99986.19;5100604;28;20032;-84
2021/08/23 07:22:53;;;;;;;1.02;1.02;;;;;;;30.91;25.20;99992.16;5068812;28;20032;-84
2021/08/23 07:25:20;;;;;;;1.00;1.00;;;;;;;29.86;26.07;99993.13;5105894;28;20058;-82
2021/08/23 07:27:47;;;;;;;0.25;0.25;;;;;;;28.84;27.47;99984.75;5106303;28;20063;-86
2021/08/23 07:30:14;;;;;;;1.00;1.00;;;;;;;30.13;25.97;99980.97;5103504;28;20044;-86
2021/08/23 07:32:40;;;;;;;1.00;1.00;;;;;;;29.43;26.07;99986.69;5101377;28;20093;-85
2021/08/23 07:35:08;;;;;;;1.00;1.00;;;;;;;29.06;27.43;99987.50;5102824;28;20076;-86
2021/08/23 07:37:42;;;;;;;1.10;1.10;;;;;;;29.82;26.20;99978.06;5103406;28;20042;-84
2021/08/23 07:40:13;;;;;;;1.10;1.10;;;;;;;31.17;24.98;99979.03;5084767;28;20060;-84
2021/08/23 07:42:43;;;;;;;0.10;0.10;;;;;;;30.60;24.37;99974.47;5074897;28;20059;-84
2021/08/23 07:45:13;;;;;;;0.10;0.10;;;;;;;29.19;25.88;99977.03;5117988;28;20075;-84
2021/08/23 07:47:42;;;;;;;1.20;1.20;;;;;;;29.37;26.47;99984.16;5101664;28;20115;-84
2021/08/23 07:50:09;;;;;;;1.10;1.10;;;;;;;30.79;25.51;99983.19;5086634;28;20020;-84
2021/08/23 07:52:36;;;;;;;0.65;0.65;;;;;;;30.60;24.57;99974.47;5104428;28;20052;-85
2021/08/23 07:55:04;;;;;;;1.13;1.13;;;;;;;29.85;26.17;99969.16;5107433;28;20094;-85
2021/08/23 07:57:31;;;;;;;0.20;0.20;;;;;;;31.20;24.59;99970.09;5094021;23;20060;-85
2021/08/23 08:00:02;;;;;;;1.10;1.10;;;;;;;32.07;24.06;99975.56;5062002;28;20071;-85
2021/08/23 08:02:39;;;;;;;0.10;0.10;;;;;;;31.62;23.37;99967.00;5048100;28;20104;-84
2021/08/23 08:05:06;;;;;;;1.08;1.08;;;;;;;31.07;24.33;99982.66;5080596;28;20035;-86
2021/08/23 08:07:37;;;;;;;1.20;1.20;;;;;;;31.40;23.13;99974.84;5049875;28;20033;-86
2021/08/23 08:10:06;;;;;;;0.55;0.55;;;;;;;30.15;23.86;99974.03;5044102;28;20027;-86
2021/08/23 08:12:33;;;;;;;1.30;1.30;;;;;;;30.48;23.76;99967.19;5051560;28;20045;-86
2021/08/23 08:15:02;;;;;;;0.10;0.10;;;;;;;29.90;24.94;99949.66;5062852;28;20033;-84
2021/08/23 08:17:31;;;;;;;0.10;0.10;;;;;;;29.12;26.19;99963.34;5039306;28;20041;-85
2021/08/23 08:19:57;;;;;;;1.05;1.05;;;;;;;29.23;26.14;99958.69;5036514;28;20144;-83
2021/08/23 08:22:24;;;;;;;1.20;1.20;;;;;;;29.38;25.70;99961.59;5052090;28;20510;-83
2021/08/23 08:24:53;;;;;;;1.20;1.20;;;;;;;31.18;24.24;99969.53;5084654;28;20060;-83
2021/08/23 08:27:20;;;;;;;0.90;0.90;;;;;;;31.97;23.03;99958.84;5036495;28;20175;-85
2021/08/23 08:29:50;;;;;;;0.60;0.60;;;;;;;31.50;24.31;99954.44;5037100;28;20099;-84
2021/08/23 08:32:20;;;;;;;0.50;0.50;;;;;;;31.09;24.10;99966.47;5069430;28;20148;-85
2021/08/23 08:34:47;;;;;;;1.20;1.20;;;;;;;31.33;23.46;99961.16;5033796;28;20526;-85
2021/08/23 08:37:16;;;;;;;1.17;1.17;;;;;;;32.86;22.29;99966.19;5052575;28;20060;-84
2021/08/23 08:39:43;;;;;;;0.52;0.52;;;;;;;32.06;22.89;99968.28;5051080;28;20067;-85
2021/08/23 08:42:11;;;;;;;1.15;1.15;;;;;;;31.45;24.08;99970.13;5050589;28;20055;-84
2021/08/23 08:44:38;;;;;;;0.10;0.10;;;;;;;30.27;25.43;99963.50;5036358;28;20055;-83
2021/08/23 08:47:05;;;;;;;0.10;0.10;;;;;;;28.59;26.56;99977.03;5054699;28;20048;-83
2021/08/23 08:49:35;;;;;;;1.20;1.20;;;;;;;29.79;25.22;99967.44;5071045;28;20049;-84
2021/08/23 08:52:06;;;;;;;1.20;1.20;;;;;;;29.73;24.96;99965.75;5054323;28;20090;-82
2021/08/23 08:54:32;;;;;;;1.20;1.20;;;;;;;29.36;25.00;99965.72;5051971;28;20044;-83
2021/08/23 08:57:03;;;;;;;1.20;1.20;;;;;;;29.07;24.88;99974.44;5070550;28;20029;-84
2021/08/23 08:59:30;;;;;;;1.20;1.20;;;;;;;29.16;25.02;99967.25;5051942;28;20124;-82
2021/08/23 09:01:57;;;;;;;1.20;1.20;;;;;;;31.18;23.06;99963.94;5034401;28;20041;-85
2021/08/23 09:04:30;;;;;;;1.17;1.17;;;;;;;32.04;22.21;99964.97;5033379;28;20032;-86
2021/08/23 09:06:58;;;;;;;1.20;1.20;;;;;;;32.77;20.76;99975.50;5051933;28;20117;-85
2021/08/23 09:09:29;;;;;;;0.77;0.77;;;;;;;30.92;22.48;99965.91;5069439;28;20283;-86
2021/08/23 09:12:06;;;;;;;1.38;1.38;;;;;;;32.01;21.56;99966.34;5090944;23;20079;-85
2021/08/23 09:14:36;;;;;;;1.20;1.20;;;;;;;33.42;20.71;99972.47;5076559;28;20056;-84
2021/08/23 09:17:08;;;;;;;1.10;1.10;;;;;;;34.12;19.55;99967.28;5070858;28;20029;-85
2021/08/23 09:19:36;;;;;;;0.60;0.30;;;;;;;31.43;21.57;99972.34;5071743;28;20037;-84
2021/08/23 09:22:07;;;;;;;0.20;0.20;;;;;;;31.16;22.00;99966.19;5067159;28;20049;-85
2021/08/23 09:24:37;;;;;;;0.10;0.10;;;;;;;30.28;22.51;99969.94;5086619;28;20131;-83
2021/08/23 09:27:07;;;;;;;1.15;1.15;;;;;;;32.05;20.50;99972.22;5080608;28;20052;-84
2021/08/23 09:30:01;;;;;;;1.00;1.00;;;;;;;31.93;20.12;99973.38;5030735;28;20068;-86
2021/08/23 09:32:28;;;;;;;1.10;1.10;;;;;;;32.74;20.59;99979.72;5042881;28;20070;-86
2021/08/23 09:34:56;;;;;;;1.00;1.00;;;;;;;31.83;20.97;99972.53;5079698;28;20032;-84
2021/08/23 09:37:31;;;;;;;1.08;1.08;;;;;;;31.33;21.68;99980.72;5082683;28;20056;-86
2021/08/23 09:40:13;;;;;;;1.00;1.00;;;;;;;31.25;20.61;99970.09;5098595;28;20033;-85
2021/08/23 09:42:42;;;;;;;1.00;1.00;;;;;;;30.62;21.83;99966.69;5079853;28;20052;-82
2021/08/23 09:45:17;;;;;;;0.95;0.95;;;;;;;29.78;23.57;99974.13;5067218;28;20033;-85
2021/08/23 09:47:48;;;;;;;1.00;1.00;;;;;;;31.56;21.88;99975.69;5094183;28;20390;-85
2021/08/23 09:50:17;;;;;;;1.20;1.20;;;;;;;30.58;22.63;99977.56;5050414;28;20052;-86
2021/08/23 09:52:44;;;;;;;1.10;1.10;;;;;;;30.82;22.49;99977.88;5069736;28;20051;-84
2021/08/23 09:55:13;;;;;;;1.02;1.02;;;;;;;31.54;21.97;99973.16;5090201;28;20052;-86
2021/08/23 09:57:43;;;;;;;1.00;1.00;;;;;;;32.32;20.67;99969.84;5064267;28;20572;-84
2021/08/23 10:00:13;;;;;;;0.90;0.90;;;;;;;31.68;21.30;99962.25;5082669;28;20151;-85
2021/08/23 10:02:49;;;;;;;0.90;0.90;;;;;;;32.72;20.57;99970.75;5087838;28;20109;-87
2021/08/23 10:05:18;;;;;;;0.80;0.80;;;;;;;31.58;21.44;99979.03;5085313;28;20132;-84
2021/08/23 10:07:47;;;;;;;1.00;1.00;;;;;;;31.11;22.11;99966.19;5047585;28;20044;-83
2021/08/23 10:10:13;;;;;;;0.90;0.90;;;;;;;31.85;20.74;99967.47;5084387;28;20037;-84
2021/08/23 10:12:40;;;;;;;0.90;0.90;;;;;;;33.40;20.49;99981.19;5083811;28;20127;-85
2021/08/23 10:15:09;;;;;;;0.80;0.80;;;;;;;32.96;20.54;99970.09;5067610;28;20043;-84
2021/08/23 10:17:38;;;;;;;0.95;0.95;;;;;;;31.23;21.07;99977.94;5071163;28;20016;-85
2021/08/23 10:20:05;;;;;;;0.90;0.90;;;;;;;31.64;21.40;99966.72;5102661;28;20060;-84
2021/08/23 10:22:33;;;;;;;1.00;1.00;;;;;;;32.21;19.61;99971.00;5078170;28;20071;-85
2021/08/23 10:25:01;;;;;;;1.00;1.00;;;;;;;32.92;19.69;99969.78;5051817;28;20127;-85
2021/08/23 10:27:32;;;;;;;0.80;0.80;;;;;;;33.88;18.87;99974.84;5089698;28;20119;-83
2021/08/23 10:29:59;;;;;;;0.90;0.90;;;;;;;34.16;18.91;99971.16;5054079;28;20060;-82
2021/08/23 10:32:39;;;;;;;0.80;0.80;;;;;;;31.19;21.15;99966.47;5088744;28;20067;-85
2021/08/23 10:35:25;;;;;;;0.80;0.80;;;;;;;32.57;20.63;99974.50;5090453;28;20036;-84
2021/08/23 10:37:54;;;;;;;0.80;0.80;;;;;;;33.76;19.57;99962.06;5052110;28;20051;-86
2021/08/23 10:40:28;;;;;;;0.70;0.70;;;;;;;34.07;19.21;99959.75;5082495;28;20064;-86
2021/08/23 10:42:56;;;;;;;0.80;0.80;;;;;;;31.36;20.34;99955.03;5070445;28;20119;-85
2021/08/23 10:45:23;;;;;;;0.80;0.80;;;;;;;30.39;21.75;99963.28;5104405;28;20028;-85
2021/08/23 10:47:53;;;;;;;0.80;0.80;;;;;;;30.43;20.88;99967.19;5084450;28;20036;-85
2021/08/23 10:50:25;;;;;;;0.80;0.80;;;;;;;30.12;21.90;99963.41;5066702;28;20045;-84
2021/08/23 10:52:53;;;;;;;0.70;0.70;;;;;;;29.97;22.50;99961.41;5082677;28;20166;-85
2021/08/23 10:55:24;;;;;;;0.80;0.80;;;;;;;30.75;21.12;99957.78;5050802;28;20083;-85
2021/08/23 10:58:03;;;;;;;0.70;0.70;;;;;;;29.91;22.67;99961.63;5083477;28;20115;-86
2021/08/23 11:00:40;;;;;;;0.70;0.70;;;;;;;29.96;22.93;99959.72;5041266;28;20029;-85
2021/08/23 11:03:08;;;;;;;0.80;0.80;;;;;;;29.77;23.30;99961.31;5060597;28;20604;-85
2021/08/23 11:05:36;;;;;;;0.90;0.90;;;;;;;29.07;24.13;99969.72;5095620;28;20036;-85
2021/08/23 11:08:10;;;;;;;0.80;0.80;;;;;;;28.98;23.98;99960.16;5049726;28;20040;-85
2021/08/23 11:10:40;;;;;;;0.75;0.75;;;;;;;30.23;22.62;99953.16;5066954;28;20027;-83
2021/08/23 11:13:15;;;;;;;0.70;0.70;;;;;;;30.84;22.53;99955.28;5084099;28;20051;-84
2021/08/23 11:15:45;;;;;;;0.80;0.80;;;;;;;30.49;22.04;99951.28;5087150;28;20099;-86
2021/08/23 11:18:21;;;;;;;0.70;0.70;;;;;;;28.62;24.27;99955.31;5088348;28;20093;-87
2021/08/23 11:20:52;;;;;;;0.80;0.80;;;;;;;28.52;24.54;99947.69;5054732;28;20055;-86
2021/08/23 11:23:24;;;;;;;0.80;0.80;;;;;;;29.16;24.36;99946.94;5089085;28;20040;-86
2021/08/23 11:26:01;;;;;;;0.10;0.10;;;;;;;27.55;26.32;99946.44;5073106;28;20115;-86
2021/08/23 11:28:33;;;;;;;0.10;0.10;;;;;;;26.11;28.36;99937.53;5181716;23;20057;-87
2021/08/23 11:31:02;;;;;;;0.40;0.40;;;;;;;26.38;29.02;99942.47;5071314;28;20100;-87
2021/08/23 11:33:37;;;;;;;0.82;0.82;;;;;;;28.47;26.74;99954.06;5048573;28;20077;-86
2021/08/23 11:36:12;;;;;;;0.10;0.10;;;;;;;27.51;27.40;99935.00;5063582;28;20033;-88
2021/08/23 11:38:40;;;;;;;0.13;0.13;;;;;;;27.52;27.64;99936.69;5067751;28;20048;-85
2021/08/23 11:41:07;;;;;;;0.10;0.10;;;;;;;27.48;27.82;99943.84;5068350;28;20155;-85
2021/08/23 11:43:34;;;;;;;0.20;0.20;;;;;;;27.07;28.39;99943.19;5049323;28;20044;-85
2021/08/23 11:46:02;;;;;;;0.20;0.13;;;;;;;26.77;28.93;99939.91;5040657;28;20039;-85
2021/08/23 11:48:29;;;;;;;0.10;0.10;;;;;;;26.39;30.09;99942.22;5065351;28;20045;-85
2021/08/23 11:50:56;;;;;;;0.20;0.20;;;;;;;26.68;29.24;99947.78;5086560;28;20044;-83